Time;durP1;ratioP1;P1;durP2;ratioP2;P2;SDS_P1;SDS_P2;PMS_P1;PMS_P2;Temp;Humidity;BMP_temperature;BMP_pressure;BME280_temperature;BME280_humidity;BME280_pressure;Samples;Min_cycle;Max_cycle;Signal;HPM_P1;HPM_P2
2023/10/08 00:01:55;;;;;;;9.38;5.13;;;18.70;99.90;;;;;;5039438;28;20024;-76
2023/10/08 00:04:22;;;;;;;8.27;4.82;;;18.60;99.90;;;;;;5046318;28;20112;-77
2023/10/08 00:06:47;;;;;;;10.52;5.20;;;18.70;99.90;;;;;;5040282;28;20226;-76
2023/10/08 00:09:14;;;;;;;8.60;5.05;;;18.50;99.90;;;;;;5042939;28;20457;-76
2023/10/08 00:11:40;;;;;;;9.63;4.30;;;18.50;99.90;;;;;;5042767;28;20017;-76
2023/10/08 00:14:10;;;;;;;11.23;5.38;;;18.50;99.90;;;;;;5040525;28;20033;-77
2023/10/08 00:16:39;;;;;;;7.25;4.93;;;18.60;99.90;;;;;;5040702;28;20021;-77
2023/10/08 00:19:14;;;;;;;7.78;5.35;;;18.50;99.90;;;;;;5044068;28;20079;-76
2023/10/08 00:21:44;;;;;;;9.00;5.18;;;18.50;99.90;;;;;;5041967;28;20128;-76
2023/10/08 00:24:10;;;;;;;8.52;4.90;;;18.50;99.90;;;;;;5044728;28;20385;-76
2023/10/08 00:26:39;;;;;;;12.23;5.63;;;18.50;99.90;;;;;;5046205;28;20086;-77
2023/10/08 00:29:16;;;;;;;9.23;4.75;;;18.50;99.90;;;;;;5041559;28;21650;-76
2023/10/08 00:31:44;;;;;;;10.93;5.10;;;18.40;99.90;;;;;;5042607;28;22338;-77
2023/10/08 00:34:13;;;;;;;5.60;4.75;;;18.40;99.90;;;;;;5042045;28;20033;-77
2023/10/08 00:36:41;;;;;;;9.50;4.90;;;18.40;99.90;;;;;;5043997;28;20100;-76
2023/10/08 00:39:13;;;;;;;9.98;5.25;;;18.40;99.90;;;;;;5042551;28;20021;-76
2023/10/08 00:41:43;;;;;;;13.05;5.88;;;18.30;99.90;;;;;;5028198;28;20694;-76
2023/10/08 00:44:22;;;;;;;8.27;5.00;;;18.20;99.90;;;;;;5045456;28;20029;-77
2023/10/08 00:46:49;;;;;;;8.45;4.75;;;18.30;99.90;;;;;;5040395;28;20049;-76
2023/10/08 00:49:35;;;;;;;9.93;5.13;;;18.30;99.90;;;;;;5041750;28;20026;-75
2023/10/08 00:54:47;;;;;;;10.45;5.15;;;18.30;99.90;;;;;;5039444;28;20032;-77
2023/10/08 00:57:20;;;;;;;11.65;5.63;;;18.20;99.90;;;;;;5043595;28;20021;-76
2023/10/08 00:59:50;;;;;;;9.50;5.35;;;18.20;99.90;;;;;;5045847;28;20112;-76
2023/10/08 01:02:19;;;;;;;8.60;4.70;;;18.10;99.90;;;;;;5041798;28;20017;-76
2023/10/08 01:04:45;;;;;;;8.50;5.03;;;18.10;99.90;;;;;;5046416;28;20029;-75
2023/10/08 01:07:18;;;;;;;9.15;5.75;;;18.10;99.90;;;;;;5043139;28;20044;-76
2023/10/08 01:09:50;;;;;;;7.10;4.68;;;18.00;99.90;;;;;;5042899;28;20032;-75
2023/10/08 01:12:27;;;;;;;8.35;4.65;;;18.00;99.90;;;;;;5041355;28;20029;-76
2023/10/08 01:15:07;;;;;;;7.65;4.95;;;18.00;99.90;;;;;;5039022;28;20086;-76
2023/10/08 01:17:41;;;;;;;8.90;5.20;;;18.00;99.90;;;;;;5041076;28;20021;-76
2023/10/08 01:20:33;;;;;;;10.00;5.50;;;18.00;99.90;;;;;;5042733;28;20067;-76
2023/10/08 01:22:57;;;;;;;11.23;5.15;;;17.90;99.90;;;;;;5037995;28;20124;-76
2023/10/08 01:25:24;;;;;;;7.32;4.50;;;18.00;99.90;;;;;;5041283;28;20162;-76
2023/10/08 01:27:58;;;;;;;9.93;4.82;;;17.80;99.90;;;;;;5038470;28;20048;-75
2023/10/08 01:30:24;;;;;;;7.63;4.97;;;17.70;99.90;;;;;;5039453;28;20479;-76
2023/10/08 01:32:49;;;;;;;10.15;4.90;;;17.80;99.90;;;;;;5039398;28;20123;-76
2023/10/08 01:35:24;;;;;;;11.10;5.05;;;17.70;99.90;;;;;;5025577;28;20481;-76
2023/10/08 01:37:50;;;;;;;11.05;5.10;;;17.70;99.90;;;;;;5040230;28;20022;-76
2023/10/08 01:40:17;;;;;;;7.97;5.38;;;17.70;99.90;;;;;;5019506;28;20489;-75
2023/10/08 01:42:43;;;;;;;8.63;5.25;;;17.70;99.90;;;;;;5039077;28;20032;-76
2023/10/08 01:45:12;;;;;;;8.90;4.78;;;17.80;99.90;;;;;;5040535;28;20112;-76
2023/10/08 01:47:38;;;;;;;10.23;5.65;;;17.70;99.90;;;;;;5036493;28;20044;-76
2023/10/08 01:50:21;;;;;;;10.35;5.03;;;17.60;99.90;;;;;;5039123;28;20250;-76
2023/10/08 01:52:47;;;;;;;9.35;4.60;;;17.60;99.90;;;;;;5021441;28;20083;-75
2023/10/08 01:55:17;;;;;;;11.52;4.97;;;17.50;99.90;;;;;;5040072;28;20627;-76
2023/10/08 01:57:44;;;;;;;8.82;5.03;;;17.50;99.90;;;;;;5037432;28;20064;-76
2023/10/08 02:00:10;;;;;;;9.35;4.82;;;17.50;99.90;;;;;;5039942;28;20025;-75
2023/10/08 02:02:36;;;;;;;12.27;5.45;;;17.50;99.90;;;;;;5036209;28;20029;-76
2023/10/08 02:05:04;;;;;;;11.50;4.72;;;17.50;99.90;;;;;;5022149;28;20096;-76
2023/10/08 02:07:30;;;;;;;12.45;4.57;;;17.50;99.90;;;;;;5020232;28;20037;-76
2023/10/08 02:09:57;;;;;;;12.73;4.40;;;17.40;99.90;;;;;;5039494;28;20098;-76
2023/10/08 02:12:23;;;;;;;10.35;4.50;;;17.40;99.90;;;;;;5039765;28;20020;-76
2023/10/08 02:14:49;;;;;;;9.00;4.78;;;17.40;99.90;;;;;;5033773;28;20037;-76
2023/10/08 02:17:14;;;;;;;9.52;4.80;;;17.40;99.90;;;;;;5036021;28;20096;-76
2023/10/08 02:19:41;;;;;;;8.18;4.80;;;17.40;99.90;;;;;;5038536;28;20032;-76
2023/10/08 02:22:09;;;;;;;10.20;5.10;;;17.40;99.90;;;;;;5038597;28;20436;-75
2023/10/08 02:24:36;;;;;;;8.93;4.60;;;17.30;99.90;;;;;;5036188;28;20044;-75
2023/10/08 02:27:02;;;;;;;8.35;4.72;;;17.40;99.90;;;;;;5038910;28;20045;-76
2023/10/08 02:29:29;;;;;;;8.30;4.90;;;17.50;99.90;;;;;;5040396;28;20029;-76
2023/10/08 02:31:56;;;;;;;6.28;4.22;;;17.40;99.90;;;;;;5037026;28;20033;-76
2023/10/08 02:34:21;;;;;;;8.70;4.65;;;17.40;99.90;;;;;;5023703;28;20024;-76
2023/10/08 02:36:47;;;;;;;13.57;5.30;;;17.40;99.90;;;;;;5040652;28;20032;-76
2023/10/08 02:39:14;;;;;;;12.98;4.93;;;17.30;99.90;;;;;;5036558;28;20030;-76
2023/10/08 02:41:46;;;;;;;12.55;5.18;;;17.40;99.90;;;;;;5036375;28;20044;-76
2023/10/08 02:44:14;;;;;;;7.55;4.35;;;17.30;99.90;;;;;;5037450;28;20025;-75
2023/10/08 02:46:49;;;;;;;10.00;4.82;;;17.30;99.90;;;;;;5035701;28;20036;-76
2023/10/08 02:49:23;;;;;;;8.23;4.53;;;17.40;99.90;;;;;;5039922;28;20021;-76
2023/10/08 02:51:55;;;;;;;9.23;4.22;;;17.30;99.90;;;;;;5016226;28;20484;-76
2023/10/08 02:54:31;;;;;;;7.35;4.07;;;17.40;99.90;;;;;;5038572;28;20394;-76
2023/10/08 02:57:03;;;;;;;10.98;4.82;;;17.30;99.90;;;;;;5019741;28;20484;-76
2023/10/08 02:59:45;;;;;;;8.13;4.82;;;17.40;99.90;;;;;;5034146;28;20035;-76
2023/10/08 03:02:18;;;;;;;11.93;4.68;;;17.30;99.90;;;;;;5034852;28;20029;-76
2023/10/08 03:04:45;;;;;;;9.02;4.90;;;17.40;99.90;;;;;;5039380;28;20013;-76
2023/10/08 03:07:31;;;;;;;8.32;4.28;;;17.40;99.90;;;;;;5036973;28;21239;-76
2023/10/08 03:10:05;;;;;;;8.02;4.65;;;17.40;99.90;;;;;;5037889;28;20018;-75
2023/10/08 03:12:32;;;;;;;9.55;5.20;;;17.40;99.90;;;;;;5018454;28;20021;-76
2023/10/08 03:15:12;;;;;;;7.95;4.35;;;17.30;99.90;;;;;;5038090;28;20020;-76
2023/10/08 03:17:48;;;;;;;8.85;4.55;;;17.40;99.90;;;;;;5035384;28;20398;-76
2023/10/08 03:20:29;;;;;;;9.20;4.40;;;17.30;99.90;;;;;;5039122;28;20021;-76
2023/10/08 03:22:58;;;;;;;8.13;4.45;;;17.30;99.90;;;;;;5037535;28;20032;-76
2023/10/08 03:25:24;;;;;;;8.75;3.97;;;17.30;99.90;;;;;;5038600;28;20029;-76
2023/10/08 03:27:50;;;;;;;6.93;4.32;;;17.30;99.90;;;;;;5033311;28;20445;-76
2023/10/08 03:30:16;;;;;;;7.80;4.55;;;17.30;99.90;;;;;;5035130;28;20020;-76
2023/10/08 03:32:45;;;;;;;8.38;4.88;;;17.30;99.90;;;;;;5031492;28;20120;-75
2023/10/08 03:35:12;;;;;;;11.52;4.35;;;17.30;99.90;;;;;;5017393;28;20029;-75
2023/10/08 03:37:45;;;;;;;8.52;4.85;;;17.30;99.90;;;;;;5038043;28;20464;-76
2023/10/08 03:42:59;;;;;;;8.63;4.75;;;17.30;99.90;;;;;;5037424;28;20032;-75
2023/10/08 03:48:15;;;;;;;10.27;4.57;;;17.30;99.90;;;;;;5040840;28;20549;-75
2023/10/08 03:50:42;;;;;;;8.60;4.37;;;17.40;99.90;;;;;;5037782;28;20121;-75
2023/10/08 03:53:11;;;;;;;7.88;4.88;;;17.40;99.90;;;;;;5018488;28;20021;-75
2023/10/08 03:55:40;;;;;;;10.70;4.00;;;17.40;99.90;;;;;;5036723;28;20026;-75
2023/10/08 03:58:29;;;;;;;9.15;4.30;;;17.40;99.90;;;;;;5037667;28;20637;-75
2023/10/08 04:01:18;;;;;;;7.65;4.20;;;17.40;99.90;;;;;;5035942;28;20155;-76
2023/10/08 04:06:31;;;;;;;6.57;4.30;;;17.30;99.90;;;;;;5038072;28;20041;-75
2023/10/08 04:11:51;;;;;;;11.23;4.78;;;17.30;99.90;;;;;;5035727;28;20037;-76
2023/10/08 04:14:21;;;;;;;10.93;4.78;;;17.30;99.90;;;;;;5040286;28;20025;-75
2023/10/08 04:16:51;;;;;;;7.97;5.32;;;17.30;99.90;;;;;;5034147;28;20112;-75
2023/10/08 04:19:18;;;;;;;7.22;4.00;;;17.30;99.90;;;;;;5035521;28;20490;-76
2023/10/08 04:21:45;;;;;;;11.50;4.28;;;17.20;99.90;;;;;;5034845;28;20025;-75
2023/10/08 04:24:14;;;;;;;10.52;4.65;;;17.20;99.90;;;;;;5034188;28;20588;-75
2023/10/08 04:26:40;;;;;;;10.02;4.68;;;17.20;99.90;;;;;;5037636;28;20494;-75
2023/10/08 04:29:06;;;;;;;12.27;5.00;;;17.30;99.90;;;;;;5032875;28;20085;-76
2023/10/08 04:31:39;;;;;;;12.88;5.10;;;17.20;99.90;;;;;;5037545;28;20466;-76
2023/10/08 04:34:15;;;;;;;9.43;4.47;;;17.30;99.90;;;;;;5032969;28;20492;-76
2023/10/08 04:36:45;;;;;;;10.93;5.00;;;17.20;99.90;;;;;;5036355;28;20104;-75
2023/10/08 04:39:14;;;;;;;7.30;4.78;;;17.20;99.90;;;;;;5034387;28;20410;-76
2023/10/08 04:41:43;;;;;;;8.18;5.10;;;17.20;99.90;;;;;;5033055;28;20016;-75
2023/10/08 04:44:16;;;;;;;7.88;5.00;;;17.30;99.90;;;;;;5019554;28;20021;-76
2023/10/08 04:49:26;;;;;;;8.00;4.32;;;17.20;99.90;;;;;;5037482;28;20491;-76
2023/10/08 04:52:08;;;;;;;9.30;4.68;;;17.20;99.90;;;;;;5040796;28;20017;-75
2023/10/08 04:54:39;;;;;;;12.67;5.10;;;17.10;99.90;;;;;;5038871;28;20116;-75
2023/10/08 04:57:07;;;;;;;8.65;5.20;;;17.10;99.90;;;;;;5041231;28;20275;-76
2023/10/08 04:59:36;;;;;;;9.65;5.03;;;17.10;99.90;;;;;;5039832;28;20035;-76
2023/10/08 05:02:19;;;;;;;8.60;4.80;;;17.10;99.90;;;;;;5041999;28;20025;-75
2023/10/08 05:20:40;;;;;;;10.13;4.82;;;17.10;99.90;;;;;;5039267;28;20116;-75
2023/10/08 05:34:17;;;;;;;12.30;5.18;;;17.10;99.90;;;;;;5039731;28;20029;-76
2023/10/08 05:39:40;;;;;;;9.13;5.47;;;17.10;99.90;;;;;;5045398;28;20036;-75
2023/10/08 05:55:25;;;;;;;10.63;4.88;;;16.90;99.90;;;;;;5040263;28;20436;-77
2023/10/08 05:58:45;;;;;;;11.32;5.60;;;17.00;99.90;;;;;;5036987;28;20381;-78
2023/10/08 06:03:32;;;;;;;11.95;4.82;;;17.10;99.90;;;;;;5040044;28;20367;-78
2023/10/08 06:06:35;;;;;;;10.63;5.22;;;17.10;99.90;;;;;;5038089;28;20021;-77
2023/10/08 06:09:04;;;;;;;10.00;5.28;;;17.10;99.90;;;;;;5038603;28;20040;-77
2023/10/08 06:11:41;;;;;;;9.73;5.10;;;17.10;99.90;;;;;;5036584;28;20033;-78
2023/10/08 06:17:13;;;;;;;9.93;5.30;;;17.00;99.90;;;;;;5038722;28;20095;-79
2023/10/08 06:19:43;;;;;;;11.20;5.93;;;17.00;99.90;;;;;;5023241;28;20450;-78
2023/10/08 06:22:09;;;;;;;11.65;5.65;;;17.00;99.90;;;;;;5037001;28;20024;-75
2023/10/08 06:24:38;;;;;;;8.27;4.97;;;17.00;99.90;;;;;;5039704;28;20033;-74
2023/10/08 06:27:04;;;;;;;11.70;5.95;;;17.00;99.90;;;;;;5035927;28;20114;-74
2023/10/08 06:29:32;;;;;;;11.48;5.32;;;16.90;99.90;;;;;;5038634;28;20115;-73
2023/10/08 06:32:02;;;;;;;12.55;5.55;;;16.90;99.90;;;;;;5037764;28;20052;-75
2023/10/08 06:34:29;;;;;;;8.45;5.10;;;17.00;99.90;;;;;;5037931;28;20474;-76
2023/10/08 06:36:57;;;;;;;12.40;5.57;;;16.90;99.90;;;;;;5040392;28;20083;-75
2023/10/08 06:39:33;;;;;;;12.95;5.85;;;16.80;99.90;;;;;;5032341;28;20025;-75
2023/10/08 06:42:00;;;;;;;10.57;5.50;;;16.70;99.90;;;;;;5038852;28;20021;-75
2023/10/08 06:44:27;;;;;;;13.23;5.78;;;16.80;99.90;;;;;;5038594;28;20036;-75
2023/10/08 06:46:54;;;;;;;14.90;6.43;;;16.80;99.90;;;;;;5034005;28;20021;-76
2023/10/08 06:49:23;;;;;;;11.23;5.10;;;16.80;99.90;;;;;;5036388;28;20108;-75
2023/10/08 06:51:50;;;;;;;13.07;6.07;;;16.90;99.90;;;;;;5039969;28;20024;-75
2023/10/08 06:54:17;;;;;;;11.02;6.35;;;16.80;99.90;;;;;;5036846;28;20942;-76
2023/10/08 06:56:46;;;;;;;12.40;5.93;;;16.80;99.90;;;;;;5037626;28;20096;-75
2023/10/08 06:59:17;;;;;;;12.20;5.65;;;16.80;99.90;;;;;;5034445;28;20112;-76
2023/10/08 07:01:45;;;;;;;17.35;6.38;;;16.80;99.90;;;;;;5035120;28;20025;-74
2023/10/08 07:04:12;;;;;;;9.88;5.53;;;16.90;99.90;;;;;;5037019;28;20021;-75
2023/10/08 07:06:39;;;;;;;14.48;5.90;;;16.80;99.90;;;;;;5018836;28;20028;-75
2023/10/08 07:09:06;;;;;;;11.93;6.50;;;16.90;99.90;;;;;;5041557;28;20021;-75
2023/10/08 07:11:39;;;;;;;10.93;5.50;;;17.00;99.90;;;;;;5037746;28;20413;-76
2023/10/08 07:14:05;;;;;;;;;;;16.90;99.90;;;;;;5041883;28;20398;-76
2023/10/08 07:16:31;;;;;;;12.30;6.15;;;17.00;99.90;;;;;;5037901;28;19970;-76
2023/10/08 07:19:17;;;;;;;14.18;6.68;;;17.00;99.90;;;;;;5040122;28;20486;-76
2023/10/08 07:21:47;;;;;;;12.50;5.95;;;17.00;99.90;;;;;;5023092;28;20032;-75
2023/10/08 07:24:16;;;;;;;14.73;7.55;;;17.10;99.90;;;;;;5040514;28;20022;-76
2023/10/08 07:26:49;;;;;;;12.18;6.50;;;17.10;99.90;;;;;;5037467;28;20539;-75
2023/10/08 07:29:20;;;;;;;11.35;6.57;;;17.10;99.90;;;;;;5034607;28;20037;-75
2023/10/08 07:31:52;;;;;;;14.55;5.60;;;17.10;99.90;;;;;;5038932;28;20013;-75
2023/10/08 07:34:25;;;;;;;9.65;5.70;;;17.00;99.90;;;;;;5018522;28;20383;-75
2023/10/08 07:36:51;;;;;;;10.43;6.00;;;17.00;99.90;;;;;;5038181;28;20100;-77
2023/10/08 07:41:58;;;;;;;14.93;6.57;;;17.10;99.90;;;;;;5037104;28;20037;-77
2023/10/08 07:44:28;;;;;;;11.95;5.95;;;17.20;99.90;;;;;;5037491;28;20021;-77
2023/10/08 07:46:57;;;;;;;10.15;6.13;;;17.20;99.90;;;;;;5037820;28;20028;-74
2023/10/08 07:49:25;;;;;;;14.63;7.03;;;17.20;99.90;;;;;;5037789;28;20029;-75
2023/10/08 07:51:52;;;;;;;16.55;7.40;;;17.40;99.90;;;;;;5039917;28;20018;-74
2023/10/08 07:54:24;;;;;;;15.40;7.60;;;17.40;99.90;;;;;;5035058;28;20025;-75
2023/10/08 07:57:08;;;;;;;16.05;6.75;;;17.40;99.90;;;;;;5038081;28;20037;-75
2023/10/08 07:59:47;;;;;;;13.45;6.07;;;17.50;99.90;;;;;;5034985;28;20459;-76
2023/10/08 08:02:14;;;;;;;13.77;7.15;;;17.50;99.90;;;;;;5036681;28;20104;-75
2023/10/08 08:04:45;;;;;;;13.30;6.68;;;17.60;99.90;;;;;;5036706;28;20033;-76
2023/10/08 08:07:15;;;;;;;16.20;6.70;;;17.60;99.90;;;;;;5036517;28;20069;-75
2023/10/08 08:09:51;;;;;;;13.30;6.70;;;17.60;99.90;;;;;;5037685;28;20037;-76
2023/10/08 08:12:19;;;;;;;17.15;7.30;;;17.60;99.90;;;;;;5038841;28;20116;-76
2023/10/08 08:14:45;;;;;;;15.52;9.20;;;17.70;99.90;;;;;;5035552;28;20032;-75
2023/10/08 08:17:14;;;;;;;16.63;8.73;;;17.70;99.90;;;;;;5036339;28;20033;-75
2023/10/08 08:19:47;;;;;;;20.88;8.80;;;17.80;99.90;;;;;;5037682;28;20386;-76
2023/10/08 08:22:20;;;;;;;14.43;7.65;;;17.90;99.90;;;;;;5040278;28;20658;-76
2023/10/08 08:24:53;;;;;;;17.38;8.48;;;18.00;99.90;;;;;;5040740;28;20033;-75
2023/10/08 08:27:23;;;;;;;22.83;9.25;;;18.00;99.90;;;;;;5038702;28;20507;-75
2023/10/08 08:29:55;;;;;;;17.80;8.88;;;18.10;99.90;;;;;;5044247;28;20026;-75
2023/10/08 08:32:23;;;;;;;17.17;8.80;;;18.10;99.90;;;;;;5037152;28;20029;-74
2023/10/08 08:34:50;;;;;;;17.10;8.80;;;18.20;99.90;;;;;;5041294;28;20017;-75
2023/10/08 08:37:26;;;;;;;21.55;8.90;;;18.30;99.90;;;;;;5042682;28;20024;-76
2023/10/08 08:39:51;;;;;;;21.42;8.55;;;18.40;99.90;;;;;;5044691;28;20167;-75
2023/10/08 08:42:22;;;;;;;19.75;8.63;;;18.40;99.90;;;;;;5039734;28;20108;-76
2023/10/08 08:44:50;;;;;;;19.00;9.07;;;18.50;99.90;;;;;;5040885;28;20024;-75
2023/10/08 08:47:17;;;;;;;23.05;8.35;;;18.50;99.90;;;;;;5024290;28;20386;-76
2023/10/08 08:49:47;;;;;;;16.15;8.50;;;18.60;99.90;;;;;;5039001;28;20053;-77
2023/10/08 08:52:14;;;;;;;24.95;8.82;;;18.70;99.90;;;;;;5039478;28;20100;-76
2023/10/08 08:54:42;;;;;;;22.80;8.55;;;18.60;99.90;;;;;;5039103;28;20082;-76
2023/10/08 08:57:13;;;;;;;18.33;7.63;;;18.60;99.90;;;;;;5038452;28;20022;-75
2023/10/08 08:59:53;;;;;;;22.30;9.02;;;18.70;99.90;;;;;;5038892;28;20690;-77
2023/10/08 09:02:19;;;;;;;21.50;9.85;;;18.80;99.90;;;;;;5040674;28;20025;-77
2023/10/08 09:04:47;;;;;;;21.85;10.90;;;18.90;99.90;;;;;;5036598;28;21504;-78
2023/10/08 09:07:13;;;;;;;22.13;10.50;;;19.00;99.90;;;;;;5041289;28;20068;-78
2023/10/08 09:09:41;;;;;;;16.33;9.43;;;19.00;99.90;;;;;;5041174;28;20055;-78
2023/10/08 09:12:10;;;;;;;21.83;10.07;;;19.20;99.90;;;;;;5039279;28;20182;-76
2023/10/08 09:14:37;;;;;;;23.45;11.43;;;19.30;99.90;;;;;;5042046;28;20032;-78
2023/10/08 09:17:05;;;;;;;15.48;9.98;;;19.30;99.90;;;;;;5039818;28;20071;-78
2023/10/08 09:19:39;;;;;;;21.52;9.70;;;19.30;99.90;;;;;;5038986;28;20033;-77
2023/10/08 09:22:06;;;;;;;20.38;9.85;;;19.40;99.90;;;;;;5039972;28;20043;-79
2023/10/08 09:24:36;;;;;;;24.05;9.48;;;19.50;99.90;;;;;;5037636;28;20017;-77
2023/10/08 09:27:14;;;;;;;26.52;11.00;;;19.50;99.90;;;;;;5039440;28;20057;-76
2023/10/08 09:29:40;;;;;;;21.20;10.48;;;19.50;99.90;;;;;;5042550;28;20104;-77
2023/10/08 09:32:09;;;;;;;19.15;9.95;;;19.50;99.90;;;;;;5038638;28;20518;-81
2023/10/08 09:34:36;;;;;;;21.40;10.55;;;19.50;99.90;;;;;;5039350;28;20362;-80
2023/10/08 09:37:03;;;;;;;19.45;9.95;;;19.50;99.90;;;;;;5038460;28;20022;-78
2023/10/08 09:39:33;;;;;;;29.58;12.00;;;19.60;99.90;;;;;;5035613;28;20105;-76
2023/10/08 09:42:06;;;;;;;33.03;12.63;;;19.60;99.90;;;;;;5038770;28;20037;-76
2023/10/08 09:44:32;;;;;;;37.28;13.80;;;19.60;99.90;;;;;;5035230;28;20033;-78
2023/10/08 09:47:02;;;;;;;32.83;12.32;;;19.70;99.90;;;;;;5039309;28;20091;-76
2023/10/08 09:50:02;;;;;;;35.38;12.93;;;19.90;99.90;;;;;;5042123;28;20760;-77
2023/10/08 09:52:35;;;;;;;27.08;11.07;;;20.00;99.90;;;;;;5035013;28;20478;-81
2023/10/08 09:55:10;;;;;;;28.33;12.18;;;20.10;99.90;;;;;;5037038;28;20100;-81
2023/10/08 09:57:36;;;;;;;25.20;11.10;;;20.00;99.90;;;;;;5040619;28;20491;-78
2023/10/08 10:00:10;;;;;;;30.52;11.07;;;20.10;99.90;;;;;;5037927;28;20053;-78
2023/10/08 10:02:37;;;;;;;27.15;12.35;;;20.20;99.90;;;;;;5039620;28;20025;-77
2023/10/08 10:05:03;;;;;;;32.40;11.77;;;20.20;99.90;;;;;;5037287;28;20021;-77
2023/10/08 10:07:30;;;;;;;38.33;13.77;;;20.20;99.90;;;;;;5039754;28;20040;-79
2023/10/08 10:09:55;;;;;;;31.90;13.85;;;20.10;99.90;;;;;;5040400;28;20029;-81
2023/10/08 10:12:26;;;;;;;30.60;13.30;;;20.00;99.90;;;;;;5037340;28;20036;-83
2023/10/08 10:14:55;;;;;;;31.40;12.18;;;20.10;99.90;;;;;;5039442;28;20029;-80
2023/10/08 10:17:22;;;;;;;35.90;12.88;;;20.20;99.90;;;;;;5040540;28;20052;-81
2023/10/08 10:20:00;;;;;;;34.92;11.75;;;20.30;99.90;;;;;;5038465;28;20025;-79
2023/10/08 10:22:34;;;;;;;38.42;13.82;;;20.40;99.90;;;;;;5037103;28;20033;-77
2023/10/08 10:25:11;;;;;;;43.83;14.23;;;20.40;99.90;;;;;;5038202;28;20033;-78
2023/10/08 10:27:37;;;;;;;38.00;12.93;;;20.60;99.90;;;;;;5040923;28;20144;-80
2023/10/08 10:30:08;;;;;;;34.30;12.55;;;20.60;99.90;;;;;;5040511;28;20029;-79
2023/10/08 10:32:36;;;;;;;41.72;13.85;;;20.70;99.90;;;;;;5037898;28;20037;-81
2023/10/08 10:35:03;;;;;;;41.83;14.98;;;20.60;99.90;;;;;;5043092;28;20052;-79
2023/10/08 10:37:40;;;;;;;35.42;15.73;;;20.80;99.90;;;;;;5026741;28;20466;-77
2023/10/08 10:40:12;;;;;;;36.08;14.98;;;20.60;99.90;;;;;;5018175;28;20029;-78
2023/10/08 10:42:42;;;;;;;37.13;18.00;;;20.80;99.90;;;;;;5019564;28;22050;-79
2023/10/08 10:45:58;;;;;;;30.38;16.58;;;20.90;99.90;;;;;;5042520;28;20027;-79
2023/10/08 10:48:20;;;;;;;32.72;15.52;;;20.90;99.90;;;;;;5032128;28;20133;-80
2023/10/08 10:53:56;;;;;;;33.35;14.55;;;21.00;99.90;;;;;;5038280;28;20693;-80
2023/10/08 10:56:29;;;;;;;34.20;14.82;;;20.90;99.90;;;;;;5020638;28;20474;-78
2023/10/08 10:59:16;;;;;;;32.58;13.27;;;21.00;99.90;;;;;;5037468;28;20067;-79
2023/10/08 11:01:48;;;;;;;32.42;13.95;;;20.90;99.90;;;;;;5032809;28;20021;-76
2023/10/08 11:04:18;;;;;;;;;;;20.90;99.90;;;;;;5021888;28;21137;-76
2023/10/08 11:06:46;;;;;;;35.00;13.38;;;21.00;99.90;;;;;;5042123;28;19944;-76
2023/10/08 11:09:35;;;;;;;27.10;12.82;;;21.20;99.90;;;;;;5035698;28;20040;-76
2023/10/08 11:12:02;;;;;;;32.60;14.80;;;21.30;99.90;;;;;;5037667;28;20020;-76
2023/10/08 11:14:28;;;;;;;32.38;15.10;;;21.50;99.90;;;;;;5041530;28;20028;-76
2023/10/08 11:16:55;;;;;;;38.25;16.98;;;21.40;99.90;;;;;;5037221;28;20028;-76
2023/10/08 11:19:21;;;;;;;32.28;15.40;;;21.30;99.90;;;;;;5041452;28;20037;-76
2023/10/08 11:21:53;;;;;;;36.15;15.68;;;21.30;99.90;;;;;;5038120;28;20025;-75
2023/10/08 11:24:34;;;;;;;;;;;21.30;99.90;;;;;;5037778;28;20020;-76
2023/10/08 11:27:17;;;;;;;37.67;15.10;;;21.50;99.90;;;;;;5020720;28;19919;-76
2023/10/08 11:29:56;;;;;;;31.88;15.30;;;21.70;99.90;;;;;;5038374;28;20033;-76
2023/10/08 11:32:25;;;;;;;29.98;14.90;;;21.70;99.90;;;;;;5036388;28;20171;-75
2023/10/08 11:35:15;;;;;;;34.03;14.32;;;21.70;99.90;;;;;;5020373;28;20034;-74
2023/10/08 11:37:48;;;;;;;33.92;14.93;;;21.70;99.90;;;;;;5041765;28;20025;-76
2023/10/08 11:40:28;;;;;;;28.40;14.15;;;21.80;99.90;;;;;;5017009;28;20092;-75
2023/10/08 11:43:03;;;;;;;28.88;13.07;;;21.90;99.90;;;;;;5035648;28;20024;-76
2023/10/08 11:45:38;;;;;;;41.75;15.43;;;22.00;99.90;;;;;;5019949;28;20029;-75
2023/10/08 11:48:11;;;;;;;31.63;13.50;;;22.20;99.90;;;;;;5036726;28;20067;-76
2023/10/08 11:50:38;;;;;;;33.22;15.30;;;22.30;99.90;;;;;;5036926;28;20025;-76
2023/10/08 11:53:07;;;;;;;26.95;13.23;;;22.40;99.90;;;;;;5037601;28;20060;-76
2023/10/08 11:55:35;;;;;;;34.60;14.50;;;22.50;99.90;;;;;;5039874;28;20082;-76
2023/10/08 11:58:10;;;;;;;31.95;14.18;;;22.50;99.90;;;;;;5021843;28;20021;-76
2023/10/08 12:00:44;;;;;;;38.08;15.05;;;22.50;99.90;;;;;;5037365;28;20031;-76
2023/10/08 12:03:17;;;;;;;43.60;15.68;;;22.40;99.90;;;;;;5037446;28;20024;-76
2023/10/08 12:05:47;;;;;;;31.73;14.88;;;22.30;99.90;;;;;;5036336;28;20474;-76
2023/10/08 12:08:17;;;;;;;35.25;14.07;;;22.20;99.90;;;;;;5018991;28;20094;-76
2023/10/08 12:10:45;;;;;;;35.88;14.25;;;22.30;99.90;;;;;;5036417;28;20029;-76
2023/10/08 12:13:12;;;;;;;29.10;13.93;;;22.30;99.90;;;;;;5035066;28;20117;-76
2023/10/08 12:15:41;;;;;;;30.27;15.68;;;22.20;99.90;;;;;;5040770;28;20569;-76
2023/10/08 12:18:26;;;;;;;37.30;15.45;;;22.30;99.90;;;;;;5033021;28;20696;-76
2023/10/08 12:20:53;;;;;;;31.63;14.25;;;22.30;99.90;;;;;;5040050;28;20109;-76
2023/10/08 12:23:24;;;;;;;28.08;14.13;;;22.40;99.90;;;;;;5033288;28;20505;-76
2023/10/08 12:25:56;;;;;;;35.03;15.82;;;22.50;99.90;;;;;;5036930;28;20374;-76
2023/10/08 12:28:29;;;;;;;39.65;15.88;;;22.60;99.90;;;;;;5038150;28;20049;-76
2023/10/08 12:30:56;;;;;;;;;;;22.60;99.90;;;;;;5039032;28;20021;-76
2023/10/08 12:33:24;;;;;;;37.35;14.57;;;22.60;99.90;;;;;;5036265;28;20384;-76
2023/10/08 12:35:53;;;;;;;38.00;14.48;;;22.80;99.90;;;;;;5035934;28;20039;-75
2023/10/08 12:38:22;;;;;;;32.15;12.80;;;22.90;99.90;;;;;;5034287;28;20390;-76
2023/10/08 12:40:53;;;;;;;31.73;12.85;;;22.90;99.90;;;;;;5038126;28;20029;-76
2023/10/08 12:43:27;;;;;;;32.90;14.60;;;22.80;99.90;;;;;;5038404;28;20025;-77
2023/10/08 12:45:53;;;;;;;31.13;14.95;;;23.00;99.90;;;;;;5040244;28;20298;-76
2023/10/08 12:48:28;;;;;;;29.95;14.13;;;23.10;99.90;;;;;;5032912;28;20068;-75
2023/10/08 12:50:57;;;;;;;23.73;12.23;;;23.00;99.90;;;;;;5037453;28;20038;-77
2023/10/08 12:53:27;;;;;;;32.78;14.15;;;23.00;99.90;;;;;;5031083;28;20021;-76
2023/10/08 12:55:57;;;;;;;29.58;13.65;;;22.90;99.90;;;;;;5037170;28;20513;-76
2023/10/08 12:58:29;;;;;;;33.78;13.98;;;23.00;99.90;;;;;;5036122;28;20060;-77
2023/10/08 13:01:01;;;;;;;26.02;13.05;;;23.00;99.90;;;;;;5040413;28;20032;-77
2023/10/08 13:03:31;;;;;;;33.13;15.07;;;23.00;99.90;;;;;;5035612;28;20374;-76
2023/10/08 13:06:10;;;;;;;32.95;13.73;;;23.00;99.90;;;;;;5039672;28;20021;-75
2023/10/08 13:08:37;;;;;;;39.13;14.32;;;22.90;99.90;;;;;;5036630;28;20041;-76
2023/10/08 13:11:03;;;;;;;23.83;12.77;;;22.90;99.90;;;;;;5042383;28;20028;-76
2023/10/08 13:13:33;;;;;;;26.25;12.70;;;22.80;99.90;;;;;;5042191;28;20094;-76
2023/10/08 13:16:02;;;;;;;23.27;12.38;;;22.80;99.90;;;;;;5039931;28;20053;-76
2023/10/08 13:18:30;;;;;;;25.13;13.80;;;22.70;99.90;;;;;;5038803;28;21228;-75
2023/10/08 13:20:57;;;;;;;28.90;13.55;;;22.80;99.90;;;;;;5041513;28;20092;-76
2023/10/08 13:23:23;;;;;;;29.02;14.57;;;22.90;99.90;;;;;;5040922;28;20029;-76
2023/10/08 13:26:03;;;;;;;25.58;14.05;;;22.70;99.90;;;;;;5042276;28;20027;-76
2023/10/08 13:28:33;;;;;;;29.90;12.57;;;22.70;99.90;;;;;;5044038;28;20037;-76
2023/10/08 13:31:00;;;;;;;30.70;13.80;;;22.90;99.90;;;;;;5042825;28;20028;-76
2023/10/08 13:33:26;;;;;;;28.42;13.85;;;22.80;99.90;;;;;;5040585;28;20025;-76
2023/10/08 13:35:52;;;;;;;25.23;13.35;;;23.00;99.90;;;;;;5042991;28;20029;-75
2023/10/08 13:38:19;;;;;;;25.83;11.45;;;23.10;99.90;;;;;;5042466;28;20557;-77
2023/10/08 13:41:29;;;;;;;31.00;13.73;;;22.90;99.90;;;;;;5043509;28;20016;-76
2023/10/08 13:43:48;;;;;;;34.10;14.68;;;23.00;99.90;;;;;;5037347;28;20029;-81
2023/10/08 13:46:18;;;;;;;28.92;13.50;;;23.10;99.90;;;;;;5042710;28;20057;-76
2023/10/08 13:48:50;;;;;;;25.77;11.95;;;23.10;99.90;;;;;;5040969;28;20482;-76
2023/10/08 13:51:28;;;;;;;25.33;12.35;;;23.10;99.90;;;;;;5034945;28;20029;-75
2023/10/08 13:54:06;;;;;;;32.03;13.52;;;23.10;99.90;;;;;;5040146;28;20478;-75
2023/10/08 13:56:32;;;;;;;27.42;13.20;;;23.10;99.90;;;;;;5039028;28;20926;-76
2023/10/08 13:59:14;;;;;;;29.75;12.13;;;23.10;99.90;;;;;;5038626;28;20541;-76
2023/10/08 14:02:13;;;;;;;22.13;11.63;;;23.30;99.90;;;;;;5038260;28;20060;-76
2023/10/08 14:04:30;;;;;;;27.52;12.80;;;23.20;99.90;;;;;;5034307;28;20260;-76
2023/10/08 14:06:58;;;;;;;24.30;10.40;;;23.10;99.90;;;;;;5042905;28;20025;-75
2023/10/08 14:09:36;;;;;;;22.98;10.52;;;23.10;99.90;;;;;;5025283;28;20040;-75